Time;durP1;ratioP1;P1;durP2;ratioP2;P2;SDS_P1;SDS_P2;PMS_P1;PMS_P2;Temp;Humidity;BMP_temperature;BMP_pressure;BME280_temperature;BME280_humidity;BME280_pressure;Samples;Min_cycle;Max_cycle;Signal;HPM_P1;HPM_P2
2022/09/10 00:01:26;;;;;;;12.85;9.75;;;15.20;99.90;;;;;;5075093;28;20127;-57
2022/09/10 00:03:55;;;;;;;17.95;9.80;;;15.20;99.90;;;;;;5075050;28;20056;-56
2022/09/10 00:06:26;;;;;;;13.45;9.98;;;15.40;99.90;;;;;;5075362;28;20044;-57
2022/09/10 00:08:57;;;;;;;12.77;10.00;;;15.40;99.90;;;;;;5074659;28;20045;-57
2022/09/10 00:11:30;;;;;;;12.77;10.25;;;15.30;99.90;;;;;;5075061;28;20048;-56
2022/09/10 00:13:59;;;;;;;13.65;10.88;;;15.30;99.90;;;;;;5074982;28;20041;-56
2022/09/10 00:16:26;;;;;;;13.18;10.95;;;15.30;99.90;;;;;;5075103;28;20040;-56
2022/09/10 00:18:52;;;;;;;14.60;10.10;;;15.20;99.90;;;;;;5075119;28;20040;-57
2022/09/10 00:21:22;;;;;;;16.70;11.32;;;15.50;99.90;;;;;;5074722;28;20040;-57
2022/09/10 00:23:49;;;;;;;14.65;10.75;;;15.10;99.90;;;;;;5074893;28;20133;-56
2022/09/10 00:26:18;;;;;;;16.23;11.25;;;15.40;99.90;;;;;;5074777;28;20045;-56
2022/09/10 00:28:54;;;;;;;16.83;11.00;;;15.20;99.90;;;;;;5074719;28;20094;-56
2022/09/10 00:31:22;;;;;;;16.10;10.88;;;15.40;99.90;;;;;;5074233;28;20481;-56
2022/09/10 00:33:49;;;;;;;15.55;10.95;;;16.00;99.90;;;;;;5074795;28;20037;-56
2022/09/10 00:36:24;;;;;;;15.40;11.27;;;15.30;99.90;;;;;;5074704;28;20040;-56
2022/09/10 00:38:51;;;;;;;14.07;11.07;;;15.10;99.90;;;;;;5073407;28;20476;-57
2022/09/10 00:41:21;;;;;;;14.13;11.43;;;14.80;99.90;;;;;;5074408;28;20106;-56
2022/09/10 00:44:03;;;;;;;15.95;11.48;;;15.30;99.90;;;;;;5074487;28;20036;-57
2022/09/10 00:46:49;;;;;;;15.40;11.82;;;16.40;99.90;;;;;;5074283;28;20040;-56
2022/09/10 00:49:21;;;;;;;14.93;11.35;;;15.30;99.90;;;;;;5074473;28;20060;-56
2022/09/10 00:51:52;;;;;;;18.75;11.35;;;15.20;99.90;;;;;;5073058;28;20392;-56
2022/09/10 00:54:24;;;;;;;18.08;11.82;;;14.90;99.90;;;;;;5074209;28;20123;-56
2022/09/10 00:56:52;;;;;;;14.77;11.93;;;15.00;99.90;;;;;;5074465;28;20036;-56
2022/09/10 00:59:25;;;;;;;15.43;11.93;;;15.20;99.90;;;;;;5073557;28;20439;-56
2022/09/10 01:01:54;;;;;;;16.15;12.35;;;15.30;99.90;;;;;;5074197;28;20047;-56
2022/09/10 01:04:20;;;;;;;20.13;11.90;;;15.20;99.90;;;;;;5072918;28;20063;-56
2022/09/10 01:06:50;;;;;;;14.80;12.15;;;15.20;99.90;;;;;;5072859;28;20054;-56
2022/09/10 01:09:18;;;;;;;14.77;12.10;;;15.30;99.90;;;;;;5074103;28;20035;-57
2022/09/10 01:12:18;;;;;;;14.57;12.00;;;15.50;99.90;;;;;;5073815;28;20036;-56
2022/09/10 01:14:56;;;;;;;16.02;12.35;;;14.30;99.90;;;;;;5073722;28;20080;-56
2022/09/10 01:17:48;;;;;;;17.60;12.02;;;15.50;99.90;;;;;;5073788;28;20500;-57
2022/09/10 01:20:59;;;;;;;19.00;12.23;;;15.50;99.90;;;;;;5073847;28;20036;-56
2022/09/10 01:24:05;;;;;;;18.10;12.13;;;15.30;99.90;;;;;;5068948;28;20513;-56
2022/09/10 01:26:31;;;;;;;18.77;12.07;;;15.30;99.90;;;;;;5074028;28;20040;-56
2022/09/10 01:29:02;;;;;;;16.10;11.98;;;15.90;99.90;;;;;;5073616;28;20396;-56
2022/09/10 01:31:34;;;;;;;20.42;12.77;;;14.40;99.90;;;;;;5073370;28;20045;-56
2022/09/10 01:34:28;;;;;;;20.15;11.70;;;15.40;99.90;;;;;;5073818;28;20401;-57
2022/09/10 01:37:04;;;;;;;17.88;12.45;;;15.60;99.90;;;;;;5073448;28;20083;-57
2022/09/10 01:39:30;;;;;;;16.55;12.25;;;;;;;;;;5073757;28;20441;-56
2022/09/10 01:41:56;;;;;;;17.60;13.07;;;16.60;99.90;;;;;;5073233;28;20040;-56
2022/09/10 01:44:46;;;;;;;16.80;12.38;;;15.80;99.90;;;;;;5073725;28;20064;-56
2022/09/10 01:47:28;;;;;;;17.00;12.73;;;15.20;99.90;;;;;;5073459;28;20040;-56
2022/09/10 01:50:28;;;;;;;15.32;11.95;;;15.40;99.90;;;;;;5073420;28;20122;-56
2022/09/10 01:53:19;;;;;;;18.83;12.82;;;15.50;99.90;;;;;;5073434;28;20033;-56
2022/09/10 01:55:59;;;;;;;16.00;11.95;;;15.90;99.90;;;;;;5073394;28;20051;-56
2022/09/10 01:58:33;;;;;;;19.67;11.75;;;15.50;99.90;;;;;;5073004;28;20044;-56
2022/09/10 02:01:16;;;;;;;22.50;12.30;;;15.50;99.90;;;;;;5073333;28;20048;-56
2022/09/10 02:03:48;;;;;;;18.15;12.02;;;15.00;99.90;;;;;;5073188;28;20056;-56
2022/09/10 02:06:20;;;;;;;16.10;11.60;;;15.30;99.90;;;;;;5070865;28;20480;-56
2022/09/10 02:08:53;;;;;;;17.33;11.85;;;15.00;99.90;;;;;;5073190;28;20063;-56
2022/09/10 02:11:20;;;;;;;16.77;11.98;;;15.50;99.90;;;;;;5073249;28;20045;-56
2022/09/10 02:13:46;;;;;;;16.88;11.50;;;15.50;99.90;;;;;;5073281;28;20068;-56
2022/09/10 02:16:17;;;;;;;20.42;12.82;;;15.70;99.90;;;;;;5077544;28;20087;-57
2022/09/10 02:18:46;;;;;;;18.45;11.98;;;15.50;99.90;;;;;;5079244;28;20150;-56
2022/09/10 02:21:11;;;;;;;19.95;12.45;;;15.40;99.90;;;;;;5077274;28;20071;-57
2022/09/10 02:23:44;;;;;;;14.98;12.15;;;15.50;99.90;;;;;;5079409;28;20116;-57
2022/09/10 02:26:13;;;;;;;16.80;11.75;;;15.50;99.90;;;;;;5079816;28;20041;-56
2022/09/10 02:28:42;;;;;;;16.98;12.00;;;15.90;99.90;;;;;;5079931;28;20400;-56
2022/09/10 02:31:14;;;;;;;26.98;12.75;;;15.60;99.90;;;;;;5079639;28;20127;-56
2022/09/10 02:33:40;;;;;;;20.77;12.57;;;15.70;99.90;;;;;;5078327;28;20551;-57
2022/09/10 02:36:07;;;;;;;18.85;12.98;;;;;;;;;;5077882;28;20181;-56
2022/09/10 02:38:35;;;;;;;17.25;12.77;;;15.40;99.90;;;;;;5079707;28;20105;-56
2022/09/10 02:41:01;;;;;;;21.88;12.80;;;15.50;99.90;;;;;;5079646;28;20051;-56
2022/09/10 02:43:29;;;;;;;17.30;13.25;;;15.00;99.90;;;;;;5079488;28;20040;-57
2022/09/10 02:45:57;;;;;;;19.83;13.30;;;15.50;99.90;;;;;;5078446;28;20401;-56
2022/09/10 02:48:26;;;;;;;19.77;13.38;;;15.40;99.90;;;;;;5078323;28;20048;-57
2022/09/10 02:50:53;;;;;;;25.75;14.73;;;15.40;99.90;;;;;;5079522;28;20388;-57
2022/09/10 02:53:20;;;;;;;25.83;14.55;;;;;;;;;;5079411;28;20101;-57
2022/09/10 02:55:53;;;;;;;23.30;14.23;;;15.50;99.90;;;;;;5079834;28;20040;-56
2022/09/10 02:58:19;;;;;;;25.02;14.30;;;15.50;99.90;;;;;;5078153;28;20032;-56
2022/09/10 03:00:45;;;;;;;21.45;14.07;;;15.30;99.90;;;;;;5079522;28;20488;-56
2022/09/10 03:03:12;;;;;;;23.90;14.30;;;;;;;;;;5078709;28;20135;-57
2022/09/10 03:05:40;;;;;;;20.83;14.05;;;15.50;99.90;;;;;;5079219;28;20478;-57
2022/09/10 03:08:08;;;;;;;27.42;13.65;;;16.20;99.90;;;;;;5077875;28;20032;-56
2022/09/10 03:10:38;;;;;;;23.08;14.00;;;15.60;99.90;;;;;;5079090;28;20508;-56
2022/09/10 03:13:07;;;;;;;22.23;12.98;;;15.50;99.90;;;;;;5078282;28;20404;-56
2022/09/10 03:15:41;;;;;;;25.58;13.70;;;15.50;99.90;;;;;;5078116;28;20048;-56
2022/09/10 03:18:08;;;;;;;28.40;12.77;;;15.50;99.90;;;;;;5079137;28;20039;-57
2022/09/10 03:20:35;;;;;;;23.95;13.40;;;15.30;99.90;;;;;;5079157;28;20037;-57
2022/09/10 03:23:04;;;;;;;23.75;12.90;;;16.00;99.90;;;;;;5079245;28;20044;-57
2022/09/10 03:25:30;;;;;;;22.60;12.95;;;15.40;99.90;;;;;;5079165;28;20041;-57
2022/09/10 03:27:56;;;;;;;29.58;13.98;;;;;;;;;;5075682;28;20127;-57
2022/09/10 03:30:25;;;;;;;25.10;13.50;;;16.00;99.90;;;;;;5076191;28;20457;-57
2022/09/10 03:32:53;;;;;;;25.65;14.65;;;15.40;99.90;;;;;;5074535;28;20123;-57
2022/09/10 03:35:19;;;;;;;22.52;14.80;;;16.10;99.90;;;;;;5075810;28;20036;-57
2022/09/10 03:37:45;;;;;;;31.20;15.73;;;16.20;99.90;;;;;;5075764;28;20059;-57
2022/09/10 03:40:14;;;;;;;28.30;15.70;;;15.40;99.90;;;;;;5074452;28;20123;-57
2022/09/10 03:42:41;;;;;;;23.77;15.30;;;;;;;;;;5075833;28;20392;-57
2022/09/10 03:45:09;;;;;;;21.85;15.65;;;14.50;99.90;;;;;;5075580;28;20510;-57
2022/09/10 03:47:37;;;;;;;24.38;15.77;;;16.00;99.90;;;;;;5075791;28;20105;-57
2022/09/10 03:50:04;;;;;;;23.48;15.85;;;16.50;99.90;;;;;;5074669;28;20054;-57
2022/09/10 03:52:30;;;;;;;26.52;15.45;;;;;;;;;;5075510;28;20041;-57
2022/09/10 03:54:58;;;;;;;27.70;16.20;;;15.30;99.90;;;;;;5075543;28;20047;-57
2022/09/10 03:57:26;;;;;;;24.20;15.35;;;15.20;99.90;;;;;;5075229;28;20427;-57
2022/09/10 03:59:55;;;;;;;27.25;16.58;;;15.70;99.90;;;;;;5075501;28;20044;-57
2022/09/10 04:02:25;;;;;;;25.45;16.27;;;15.40;99.90;;;;;;5075292;28;20040;-57
2022/09/10 04:04:50;;;;;;;25.40;16.55;;;15.50;99.90;;;;;;5075024;28;20508;-57
2022/09/10 04:07:17;;;;;;;28.02;16.58;;;;;;;;;;5075265;28;20047;-57
2022/09/10 04:09:43;;;;;;;29.42;16.95;;;;;;;;;;5075304;28;20165;-63
2022/09/10 04:12:09;;;;;;;27.52;16.63;;;15.50;99.90;;;;;;5075173;28;20055;-63
2022/09/10 04:14:35;;;;;;;34.42;17.38;;;15.20;99.90;;;;;;5075269;28;20493;-63
2022/09/10 04:17:11;;;;;;;;;;;15.50;99.90;;;;;;5075417;28;20051;-63
2022/09/10 04:19:40;;;;;;;28.63;17.80;;;14.50;99.90;;;;;;5075017;28;19923;-64
2022/09/10 04:22:09;;;;;;;28.60;17.67;;;15.60;99.90;;;;;;5074691;28;20056;-63
2022/09/10 04:24:35;;;;;;;34.38;18.23;;;;;;;;;;5074982;28;20036;-63
2022/09/10 04:27:03;;;;;;;31.20;18.42;;;15.50;99.90;;;;;;5074974;28;20041;-63
2022/09/10 04:29:29;;;;;;;25.50;17.85;;;;;;;;;;5074836;28;20036;-64
2022/09/10 04:31:56;;;;;;;31.75;18.55;;;15.50;99.90;;;;;;5074875;28;20051;-64
2022/09/10 04:34:26;;;;;;;28.90;18.05;;;;;;;;;;5074924;28;20496;-64
2022/09/10 04:36:52;;;;;;;32.85;19.65;;;15.70;99.90;;;;;;5073994;28;20055;-64
2022/09/10 04:39:18;;;;;;;30.33;19.38;;;15.30;99.90;;;;;;5074530;28;20041;-64
2022/09/10 04:41:43;;;;;;;33.80;19.90;;;15.50;99.90;;;;;;5074674;28;20115;-64
2022/09/10 04:44:12;;;;;;;32.78;19.70;;;15.50;99.90;;;;;;5074353;28;20409;-57
2022/09/10 04:46:43;;;;;;;34.63;20.10;;;15.60;99.90;;;;;;5073180;28;20131;-57
2022/09/10 04:49:13;;;;;;;32.63;19.77;;;15.50;99.90;;;;;;5074356;28;20430;-57
2022/09/10 04:51:39;;;;;;;33.88;19.80;;;15.70;99.90;;;;;;5055876;28;20087;-57
2022/09/10 04:54:13;;;;;;;34.40;20.60;;;15.60;99.90;;;;;;5055974;28;20381;-57
2022/09/10 04:56:40;;;;;;;38.45;21.02;;;16.20;99.90;;;;;;5073194;28;20044;-57
2022/09/10 04:59:06;;;;;;;36.65;21.27;;;15.60;99.90;;;;;;5074432;28;20435;-57
2022/09/10 05:01:33;;;;;;;35.80;20.85;;;15.50;99.90;;;;;;5074450;28;20063;-57
2022/09/10 05:03:59;;;;;;;36.88;21.10;;;16.00;99.90;;;;;;5072603;28;20091;-57
2022/09/10 05:06:24;;;;;;;38.75;22.27;;;15.60;99.90;;;;;;5074272;28;20083;-57
2022/09/10 05:08:51;;;;;;;40.55;23.45;;;15.60;99.90;;;;;;5074091;28;20052;-57
2022/09/10 05:11:20;;;;;;;43.40;23.58;;;15.60;99.90;;;;;;5074111;28;20040;-57
2022/09/10 05:13:46;;;;;;;43.22;24.23;;;15.60;99.90;;;;;;5073928;28;20078;-64
2022/09/10 05:16:12;;;;;;;39.30;23.08;;;15.80;99.90;;;;;;5073844;28;20044;-64
2022/09/10 05:18:40;;;;;;;42.72;24.42;;;15.50;99.90;;;;;;5074081;28;20033;-64
2022/09/10 05:21:09;;;;;;;45.78;24.83;;;15.70;99.90;;;;;;5074016;28;20065;-64
2022/09/10 05:23:38;;;;;;;46.38;24.85;;;15.60;99.90;;;;;;5073727;28;20047;-63
2022/09/10 05:26:06;;;;;;;50.75;25.55;;;16.50;99.90;;;;;;5073540;28;20080;-63
2022/09/10 05:28:32;;;;;;;48.83;25.30;;;;;;;;;;5073417;28;20044;-63
2022/09/10 05:30:59;;;;;;;45.50;24.77;;;16.40;99.90;;;;;;5072279;28;20080;-64
2022/09/10 05:33:25;;;;;;;46.80;24.65;;;16.10;99.90;;;;;;5073671;28;20048;-57
2022/09/10 05:35:52;;;;;;;46.65;24.63;;;15.50;99.90;;;;;;5073486;28;20033;-57
2022/09/10 05:38:18;;;;;;;48.67;25.05;;;;;;;;;;5073487;28;20095;-57
2022/09/10 05:40:44;;;;;;;51.05;25.15;;;16.60;99.90;;;;;;5073408;28;20128;-57
2022/09/10 05:43:11;;;;;;;42.47;23.92;;;15.70;99.90;;;;;;5073421;28;20365;-57
2022/09/10 05:45:38;;;;;;;48.33;25.60;;;15.70;99.90;;;;;;5072157;28;20049;-64
2022/09/10 05:48:04;;;;;;;42.38;23.98;;;;;;;;;;5072622;28;20377;-64
2022/09/10 05:50:32;;;;;;;36.92;22.70;;;16.30;99.90;;;;;;5072906;28;20040;-64
2022/09/10 05:53:00;;;;;;;34.25;21.40;;;14.80;99.90;;;;;;5073351;28;20051;-64
2022/09/10 05:55:42;;;;;;;45.70;22.92;;;15.70;99.90;;;;;;5071272;28;20048;-64
2022/09/10 05:58:12;;;;;;;40.97;22.92;;;15.70;99.90;;;;;;5073250;28;20511;-64
2022/09/10 06:00:44;;;;;;;38.90;21.77;;;15.20;99.90;;;;;;5073501;28;20040;-64
2022/09/10 06:03:11;;;;;;;40.75;22.63;;;15.90;99.90;;;;;;5073384;28;20041;-57
2022/09/10 06:05:39;;;;;;;43.92;22.90;;;15.70;99.90;;;;;;5073412;28;20047;-57
2022/09/10 06:08:05;;;;;;;38.60;21.85;;;15.50;99.90;;;;;;5072999;28;20121;-57
2022/09/10 06:10:31;;;;;;;45.67;22.60;;;;;;;;;;5072821;28;20036;-57
2022/09/10 06:13:01;;;;;;;40.08;22.45;;;16.40;99.90;;;;;;5072469;28;20044;-57
2022/09/10 06:15:27;;;;;;;44.75;22.85;;;15.90;99.90;;;;;;5073376;28;20389;-57
2022/09/10 06:17:55;;;;;;;36.08;21.90;;;15.60;99.90;;;;;;5072489;28;20052;-57
2022/09/10 06:20:22;;;;;;;42.60;22.33;;;16.50;99.90;;;;;;5071765;28;20044;-64
2022/09/10 06:22:47;;;;;;;36.50;22.80;;;15.80;99.90;;;;;;5071693;28;20048;-64
2022/09/10 06:25:14;;;;;;;38.78;22.75;;;15.90;99.90;;;;;;5072734;28;20144;-64
2022/09/10 06:27:40;;;;;;;39.00;22.77;;;15.80;99.90;;;;;;5071663;28;20075;-64
2022/09/10 06:30:06;;;;;;;41.45;23.15;;;15.90;99.90;;;;;;5073182;28;20042;-64
2022/09/10 06:32:32;;;;;;;39.22;22.85;;;16.00;99.90;;;;;;5072680;28;20143;-66
2022/09/10 06:34:58;;;;;;;40.97;23.13;;;16.00;99.90;;;;;;5072750;28;20043;-57
2022/09/10 06:37:23;;;;;;;45.03;23.58;;;16.00;99.90;;;;;;5072794;28;20074;-57
2022/09/10 06:39:49;;;;;;;39.33;23.08;;;15.90;99.90;;;;;;5072558;28;20032;-57
2022/09/10 06:42:15;;;;;;;37.25;22.25;;;15.10;99.90;;;;;;5071684;28;20428;-57
2022/09/10 06:44:41;;;;;;;37.38;22.17;;;16.10;99.90;;;;;;5073007;28;20037;-64
2022/09/10 06:47:07;;;;;;;43.38;20.88;;;16.20;99.90;;;;;;5072858;28;20046;-64
2022/09/10 06:49:33;;;;;;;38.65;20.92;;;16.30;99.90;;;;;;5061764;28;20079;-64
2022/09/10 06:52:00;;;;;;;36.75;20.00;;;16.30;99.90;;;;;;5065982;28;20492;-57
2022/09/10 06:54:26;;;;;;;42.10;20.15;;;16.30;99.90;;;;;;5071602;28;20540;-57
2022/09/10 06:56:52;;;;;;;39.05;19.98;;;16.00;99.90;;;;;;5071134;28;20400;-57
2022/09/10 06:59:20;;;;;;;35.20;20.23;;;15.60;99.90;;;;;;5071447;28;20040;-57
2022/09/10 07:01:48;;;;;;;33.88;19.90;;;16.40;99.90;;;;;;5071532;28;20381;-57
2022/09/10 07:04:14;;;;;;;41.05;20.30;;;16.20;99.90;;;;;;5075110;28;20060;-57
2022/09/10 07:06:41;;;;;;;32.75;19.13;;;;;;;;;;5075370;28;20119;-57
2022/09/10 07:09:06;;;;;;;34.15;18.48;;;16.30;99.90;;;;;;5075360;28;20049;-57
2022/09/10 07:11:33;;;;;;;35.17;19.48;;;16.50;99.90;;;;;;5074088;28;20048;-64
2022/09/10 07:14:00;;;;;;;32.67;18.77;;;16.00;99.90;;;;;;5059985;28;20163;-63
2022/09/10 07:16:28;;;;;;;34.38;18.83;;;15.60;99.90;;;;;;5056063;28;20056;-64
2022/09/10 07:19:01;;;;;;;32.08;18.83;;;16.30;99.90;;;;;;5054748;28;20037;-57
2022/09/10 07:21:27;;;;;;;36.33;20.05;;;16.50;99.90;;;;;;5055334;28;20099;-57
2022/09/10 07:24:02;;;;;;;34.80;18.45;;;16.50;99.90;;;;;;5054746;28;20502;-57
2022/09/10 07:26:28;;;;;;;29.27;18.02;;;16.70;99.90;;;;;;5055070;28;20523;-56
2022/09/10 07:28:58;;;;;;;32.05;18.17;;;16.70;99.90;;;;;;5054063;28;20056;-57
2022/09/10 07:31:33;;;;;;;29.85;17.92;;;16.70;99.90;;;;;;5053041;28;20052;-57
2022/09/10 07:34:01;;;;;;;27.70;18.13;;;16.80;99.90;;;;;;5056383;28;20555;-57
2022/09/10 07:36:27;;;;;;;28.20;17.73;;;16.70;99.90;;;;;;5075100;28;20044;-57
2022/09/10 07:38:56;;;;;;;33.17;17.70;;;17.20;99.90;;;;;;5074914;28;20037;-57
2022/09/10 07:41:23;;;;;;;28.55;16.33;;;17.00;99.90;;;;;;5075060;28;20043;-57
2022/09/10 07:43:54;;;;;;;28.77;16.60;;;17.10;99.90;;;;;;5074664;28;20042;-57
2022/09/10 07:46:24;;;;;;;26.75;16.58;;;17.00;99.90;;;;;;5074941;28;20041;-57
2022/09/10 07:48:58;;;;;;;26.25;15.98;;;17.90;99.90;;;;;;5074518;28;20052;-64
2022/09/10 07:51:26;;;;;;;29.80;15.93;;;17.90;99.90;;;;;;5073449;28;20044;-64
2022/09/10 07:53:54;;;;;;;28.38;15.23;;;17.60;99.90;;;;;;5073470;28;20052;-64
2022/09/10 07:56:22;;;;;;;24.60;14.85;;;18.00;99.90;;;;;;5073606;28;20048;-64
2022/09/10 07:58:48;;;;;;;22.25;13.82;;;18.30;99.90;;;;;;5073626;28;20076;-64
2022/09/10 08:01:14;;;;;;;25.60;14.00;;;18.20;99.90;;;;;;5072767;28;20455;-64
2022/09/10 08:03:43;;;;;;;20.73;13.70;;;18.50;99.90;;;;;;5073280;28;20113;-64
2022/09/10 08:06:09;;;;;;;21.25;13.88;;;18.80;99.90;;;;;;5073808;28;20380;-64
2022/09/10 08:08:39;;;;;;;22.38;13.05;;;18.30;99.90;;;;;;5055928;28;20075;-64
2022/09/10 08:11:11;;;;;;;23.77;13.07;;;18.70;99.90;;;;;;5072666;28;20488;-64
2022/09/10 08:13:39;;;;;;;23.05;13.45;;;18.50;99.90;;;;;;5073971;28;20059;-64
2022/09/10 08:16:11;;;;;;;22.38;13.60;;;18.50;99.90;;;;;;5072760;28;20048;-57
2022/09/10 08:18:37;;;;;;;21.55;13.23;;;18.40;99.90;;;;;;5073724;28;20110;-57
2022/09/10 08:21:09;;;;;;;19.50;13.00;;;18.50;99.90;;;;;;5073754;28;20048;-57
2022/09/10 08:23:38;;;;;;;21.42;12.93;;;18.60;99.90;;;;;;5074200;28;20452;-57
2022/09/10 08:26:06;;;;;;;20.77;12.73;;;18.50;99.90;;;;;;5073436;28;20476;-57
2022/09/10 08:28:33;;;;;;;18.77;11.80;;;18.80;99.90;;;;;;5074058;28;20482;-57
2022/09/10 08:31:10;;;;;;;17.15;11.65;;;18.70;99.90;;;;;;5073200;28;20028;-57
2022/09/10 08:33:38;;;;;;;19.10;12.32;;;19.00;99.90;;;;;;5073706;28;20043;-57
2022/09/10 08:36:06;;;;;;;20.33;12.80;;;18.70;99.90;;;;;;5054697;28;20048;-57
2022/09/10 08:38:35;;;;;;;17.92;12.38;;;18.60;99.90;;;;;;5054300;28;20035;-57
2022/09/10 08:41:32;;;;;;;19.45;12.27;;;18.80;99.90;;;;;;5073740;28;20044;-57
2022/09/10 08:44:08;;;;;;;25.95;12.68;;;18.80;99.90;;;;;;5068157;28;20076;-57
2022/09/10 08:46:54;;;;;;;18.55;11.90;;;18.70;99.90;;;;;;5071064;28;20086;-57
2022/09/10 08:49:45;;;;;;;19.33;11.45;;;19.30;99.90;;;;;;5074407;28;20083;-58
2022/09/10 08:52:33;;;;;;;17.17;10.88;;;20.20;99.90;;;;;;5082918;28;20048;-59
2022/09/10 08:55:17;;;;;;;14.25;10.73;;;19.60;99.90;;;;;;5073865;28;20384;-57
2022/09/10 08:58:12;;;;;;;15.07;10.43;;;20.90;99.90;;;;;;5071608;28;20036;-57
2022/09/10 09:00:47;;;;;;;14.65;10.23;;;21.30;99.90;;;;;;5072229;28;20036;-57
2022/09/10 09:03:29;;;;;;;15.73;9.30;;;21.80;99.90;;;;;;5073562;28;20036;-57
2022/09/10 09:05:59;;;;;;;11.52;7.75;;;22.40;99.90;;;;;;5071698;28;20408;-57
2022/09/10 09:08:28;;;;;;;13.90;7.20;;;22.70;99.90;;;;;;5071026;28;20500;-57
2022/09/10 09:11:10;;;;;;;11.13;6.85;;;22.90;99.90;;;;;;5073506;28;20056;-57
2022/09/10 09:14:06;;;;;;;12.35;8.05;;;23.80;99.90;;;;;;5073622;28;20036;-57
2022/09/10 09:16:38;;;;;;;12.38;8.27;;;23.60;99.90;;;;;;5073426;28;20097;-55
2022/09/10 09:19:28;;;;;;;12.30;8.50;;;23.40;99.90;;;;;;5073537;28;20032;-55
2022/09/10 09:21:57;;;;;;;12.40;8.25;;;23.60;99.90;;;;;;5070171;28;20043;-57
2022/09/10 09:24:41;;;;;;;13.00;8.95;;;22.70;99.90;;;;;;5069817;28;20560;-57
2022/09/10 09:27:15;;;;;;;11.43;8.43;;;22.50;99.90;;;;;;5073038;28;20357;-57
2022/09/10 09:30:06;;;;;;;15.43;8.80;;;22.50;99.90;;;;;;5069007;28;20044;-58
2022/09/10 09:32:40;;;;;;;12.57;8.48;;;22.30;99.90;;;;;;5077232;28;20128;-58
2022/09/10 09:35:40;;;;;;;12.10;7.88;;;22.20;99.90;;;;;;5070086;28;20064;-57
2022/09/10 09:38:06;;;;;;;12.10;7.80;;;22.10;99.90;;;;;;5068143;28;20035;-55
2022/09/10 09:40:49;;;;;;;10.73;7.63;;;22.20;99.90;;;;;;5071671;28;20036;-55
2022/09/10 09:43:26;;;;;;;9.68;6.72;;;22.00;99.90;;;;;;5070711;28;20158;-55
2022/09/10 09:45:52;;;;;;;12.15;7.70;;;21.80;99.90;;;;;;5070890;28;20063;-56
2022/09/10 09:48:20;;;;;;;14.65;8.05;;;21.70;99.90;;;;;;5073156;28;20429;-55
2022/09/10 09:50:49;;;;;;;13.43;8.85;;;21.40;99.90;;;;;;5073037;28;20036;-64
2022/09/10 09:53:22;;;;;;;12.95;8.02;;;21.10;99.90;;;;;;5073243;28;20045;-62
2022/09/10 09:55:55;;;;;;;12.82;8.00;;;21.30;99.90;;;;;;5071642;28;20045;-63
2022/09/10 09:58:25;;;;;;;10.65;7.80;;;21.40;99.90;;;;;;5071735;28;20045;-63
2022/09/10 10:01:08;;;;;;;10.02;7.57;;;21.40;99.90;;;;;;5054878;28;20096;-63
2022/09/10 10:04:00;;;;;;;12.90;8.13;;;21.40;99.90;;;;;;5072320;28;20057;-63
2022/09/10 10:06:44;;;;;;;13.00;8.02;;;21.60;99.90;;;;;;5072237;28;20147;-62
2022/09/10 10:09:26;;;;;;;10.80;7.47;;;21.70;99.90;;;;;;5073002;28;20083;-63
2022/09/10 10:12:03;;;;;;;12.45;8.00;;;21.50;99.90;;;;;;5070706;28;20383;-63
2022/09/10 10:14:41;;;;;;;10.27;7.30;;;22.80;99.90;;;;;;5072800;28;20039;-64
2022/09/10 10:17:29;;;;;;;10.00;6.90;;;21.70;99.90;;;;;;5072720;28;20367;-63
2022/09/10 10:20:13;;;;;;;11.18;6.93;;;21.80;99.90;;;;;;5072608;28;20059;-63
2022/09/10 10:22:47;;;;;;;9.85;7.03;;;21.70;99.90;;;;;;5059881;28;20102;-63
2022/09/10 10:25:40;;;;;;;8.65;6.22;;;22.20;99.90;;;;;;5070996;28;20044;-63
2022/09/10 10:28:30;;;;;;;9.63;6.22;;;22.30;99.90;;;;;;5070014;28;20473;-63
2022/09/10 10:30:59;;;;;;;12.65;6.85;;;22.30;99.90;;;;;;5070811;28;20048;-63
2022/09/10 10:33:30;;;;;;;10.35;6.63;;;22.40;99.90;;;;;;5072550;28;20473;-63
2022/09/10 10:36:19;;;;;;;11.00;5.60;;;22.20;99.90;;;;;;5072715;28;21116;-63
2022/09/10 10:39:13;;;;;;;11.20;4.97;;;22.10;99.90;;;;;;5074544;28;20028;-63
2022/09/10 10:41:50;;;;;;;10.40;5.00;;;22.20;99.90;;;;;;5076027;28;20124;-63
2022/09/10 10:44:47;;;;;;;9.50;5.93;;;22.40;99.90;;;;;;5074931;28;20056;-63
2022/09/10 10:47:45;;;;;;;9.25;5.50;;;22.50;99.90;;;;;;5073647;28;20434;-63
2022/09/10 10:50:26;;;;;;;10.60;6.10;;;22.40;99.90;;;;;;5066318;28;20072;-63
2022/09/10 10:53:21;;;;;;;11.13;6.10;;;22.30;99.90;;;;;;5073636;28;20522;-63
2022/09/10 10:56:21;;;;;;;8.57;6.25;;;22.00;99.90;;;;;;5075580;28;20043;-63
2022/09/10 10:59:06;;;;;;;7.90;5.80;;;22.00;99.90;;;;;;5056561;28;20041;-64
2022/09/10 11:01:41;;;;;;;10.07;7.37;;;21.80;99.90;;;;;;5081818;28;20040;-63
2022/09/10 11:04:29;;;;;;;10.00;6.32;;;21.80;99.90;;;;;;5074482;28;20048;-63
2022/09/10 11:07:02;;;;;;;10.27;6.60;;;21.70;99.90;;;;;;5080211;28;20481;-64
2022/09/10 11:10:11;;;;;;;11.10;6.35;;;21.60;99.90;;;;;;5074360;28;20045;-64
2022/09/10 11:13:02;;;;;;;8.80;6.10;;;21.60;99.90;;;;;;5074573;28;20040;-63
2022/09/10 11:15:51;;;;;;;8.25;5.70;;;21.70;99.90;;;;;;5072602;28;20085;-64
2022/09/10 11:18:41;;;;;;;10.95;5.95;;;21.70;99.90;;;;;;5065709;28;20514;-63
2022/09/10 11:21:12;;;;;;;10.35;5.32;;;21.80;99.90;;;;;;5073177;28;20064;-64
2022/09/10 11:24:02;;;;;;;9.82;4.85;;;21.60;99.90;;;;;;5075916;28;20083;-64
2022/09/10 11:26:41;;;;;;;10.25;6.10;;;22.10;99.90;;;;;;5090585;28;20043;-64
2022/09/10 11:29:27;;;;;;;8.82;5.47;;;21.70;99.90;;;;;;5075543;28;20036;-64
2022/09/10 11:31:58;;;;;;;;;;;22.00;99.90;;;;;;5073651;28;20037;-65
2022/09/10 11:34:31;;;;;;;8.95;4.43;;;22.00;99.90;;;;;;5075287;28;20271;-64
2022/09/10 11:37:29;;;;;;;8.10;5.53;;;22.00;99.90;;;;;;5073560;28;20032;-64
2022/09/10 11:40:00;;;;;;;8.20;4.72;;;22.20;99.90;;;;;;5074930;28;20496;-64
2022/09/10 11:42:38;;;;;;;9.00;4.80;;;21.90;99.90;;;;;;5074910;28;20116;-65
2022/09/10 11:45:38;;;;;;;9.63;5.40;;;22.00;99.90;;;;;;5075262;28;20379;-64
2022/09/10 11:48:16;;;;;;;8.23;4.63;;;22.10;99.90;;;;;;5072011;28;20064;-64
2022/09/10 11:50:48;;;;;;;9.38;4.30;;;22.30;99.90;;;;;;5072883;28;20101;-65
2022/09/10 11:53:17;;;;;;;9.63;4.43;;;22.40;99.90;;;;;;5071190;28;20537;-65
2022/09/10 11:55:49;;;;;;;8.82;5.95;;;22.60;99.90;;;;;;5074783;28;20066;-65
2022/09/10 11:58:23;;;;;;;7.85;5.07;;;22.80;99.90;;;;;;5072939;28;20041;-64
2022/09/10 12:01:08;;;;;;;8.48;4.97;;;22.70;99.90;;;;;;5074587;28;20040;-64
2022/09/10 12:04:07;;;;;;;10.10;4.32;;;23.00;99.90;;;;;;5072520;28;20048;-64
2022/09/10 12:06:52;;;;;;;10.52;4.82;;;22.90;99.90;;;;;;5073783;28;20126;-64
2022/09/10 12:09:22;;;;;;;12.13;4.85;;;22.50;99.90;;;;;;5073142;28;20392;-64
2022/09/10 12:12:20;;;;;;;7.20;4.40;;;23.20;99.90;;;;;;5072995;28;20400;-64
2022/09/10 12:14:46;;;;;;;6.10;4.00;;;22.90;99.90;;;;;;5072726;28;20399;-64
2022/09/10 12:17:34;;;;;;;5.70;3.17;;;22.90;99.90;;;;;;5074526;28;20044;-64
2022/09/10 12:20:04;;;;;;;6.72;3.75;;;22.90;99.90;;;;;;5073596;28;20097;-64
2022/09/10 12:22:38;;;;;;;6.68;3.47;;;22.80;99.90;;;;;;5074704;28;20032;-64
2022/09/10 12:25:10;;;;;;;6.88;3.78;;;22.60;99.90;;;;;;5073248;28;20053;-64
2022/09/10 12:27:57;;;;;;;7.67;4.50;;;23.40;99.90;;;;;;5072584;28;20129;-63
2022/09/10 12:30:29;;;;;;;7.50;4.32;;;22.20;99.90;;;;;;5073844;28;20677;-64
2022/09/10 12:33:01;;;;;;;7.90;4.63;;;22.40;99.90;;;;;;5072703;28;20387;-64
2022/09/10 12:35:36;;;;;;;8.25;4.60;;;22.30;99.90;;;;;;5073920;28;20036;-56
2022/09/10 12:38:20;;;;;;;;;;;22.20;99.90;;;;;;5074243;28;20076;-56
2022/09/10 12:41:07;;;;;;;9.77;5.40;;;22.00;99.90;;;;;;5073738;28;19970;-56
2022/09/10 12:43:39;;;;;;;12.35;5.68;;;22.00;99.90;;;;;;5074265;28;20068;-56
2022/09/10 12:46:08;;;;;;;10.43;5.75;;;21.30;99.90;;;;;;5056728;28;20500;-56
2022/09/10 12:48:46;;;;;;;7.55;5.20;;;21.80;99.90;;;;;;5074241;28;20032;-56
2022/09/10 12:51:41;;;;;;;9.48;4.63;;;21.80;99.90;;;;;;5074229;28;20076;-56
2022/09/10 12:54:34;;;;;;;7.85;5.35;;;21.70;99.90;;;;;;5074684;28;20032;-56
2022/09/10 12:57:21;;;;;;;10.63;5.05;;;21.70;99.90;;;;;;5074059;28;20055;-56
2022/09/10 13:00:26;;;;;;;7.88;4.60;;;21.90;99.90;;;;;;5074384;28;20064;-56
2022/09/10 13:03:07;;;;;;;7.95;5.10;;;21.90;99.90;;;;;;5073081;28;20044;-56
2022/09/10 13:05:46;;;;;;;7.95;4.10;;;21.90;99.90;;;;;;5072919;28;20131;-56
2022/09/10 13:08:20;;;;;;;7.80;4.45;;;21.90;99.90;;;;;;5072841;28;20541;-56
2022/09/10 13:11:09;;;;;;;9.98;5.30;;;21.90;99.90;;;;;;5073923;28;20500;-64